Impacts TAF Board INFO
FOR SITUATIONAL AWARENESS. NOT TO BE USED FOR FLIGHT PLANNING PURPOSES.
IDs:

KDEN - Denver Intl, CO, US

Issued at 2323 UTC 24 Jun 2017
Updated at 0153 UTC 25 Jun 2017
Potential Impact None Slight Moderate High
Time0053Z 25/02Z 25/03Z 25/04Z 25/05Z 25/06Z 25/07Z 25/08Z 25/09Z 25/10Z 25/11Z 25/12Z 25/13Z 25/14Z>>
Type OBS PRVL PRVL PRVL PRVL PRVL PRVL PRVL PRVL PRVL PRVL PRVL PRVL PRVL
VIS 10 >6 >6 >6 >6 >6 >6 >6 >6 >6 >6 >6 >6 >6
CIG 80 70 70 70 70 70 70 70 -- -- -- -- -- --
Cover BKN BKN BKN BKN BKN BKN BKN BKN SCT SCT SCT SCT SCT SCT
FltCat VFR VFR VFR VFR VFR VFR VFR VFR VFR VFR VFR VFR VFR VFR
WX -- -- -- -- -- -- -- -- -- -- -- -- -- --
WDir 50 70 120 120 120 150 150 150 180 180 180 180 180 180
WSpd 15 11 11 11 11 10 10 10 8 8 8 8 8 8
WGst -- -- -- -- -- -- -- -- -- -- -- -- -- --

Raw TAF
KDEN 242323Z 2500/2606 02012KT P6SM SCT050 BKN070
  FM250100 07011KT P6SM SCT050 BKN070
  FM250300 12011KT P6SM SCT050 BKN070
  FM250600 15010KT P6SM SCT040 BKN070
  FM250900 18008KT P6SM SCT070 SCT120
  FM251500 36006KT P6SM SCT040 BKN060
  FM251900 04006KT P6SM SCT050 BKN080
  FM252300 09008KT P6SM VCSH SCT050 BKN080


Raw METAR
KDEN 250053Z 05015KT 10SM BKN080 22/08 A3027 RMK AO2 SLP190 T02170078
KDEN 242353Z 03017G22KT 10SM BKN065 23/08 A3026 RMK AO2 SLP185 T02330078 10261 20200 57006
KDEN 242253Z 01010KT 10SM BKN065 23/07 A3026 RMK AO2 SLP188 T02330067

METAR Board
Radar Display
Forecast Discussion

FOR SITUATIONAL AWARENESS. NOT TO BE USED FOR FLIGHT PLANNING PURPOSES.

Page loaded:  01:53 UTC  |   06:53 PM Pacific  |   07:53 PM Mountain  |   08:53 PM Central  |   09:53 PM Eastern

 

ADVISORIES

FORECASTS

FORECASTS

OBSERVATIONS

USER TOOLS

ABOUT US